Time;durP1;ratioP1;P1;durP2;ratioP2;P2;SDS_P1;SDS_P2;PMS_P1;PMS_P2;Temp;Humidity;BMP_temperature;BMP_pressure;BME280_temperature;BME280_humidity;BME280_pressure;Samples;Min_cycle;Max_cycle;Signal;HPM_P1;HPM_P2
2022/11/29 00:01:22;;;;;;;11.97;8.73;;;9.60;99.90;;;;;;5036137;28;20717;-60
2022/11/29 00:03:49;;;;;;;17.87;10.37;;;9.70;99.90;;;;;;5036215;28;20821;-61
2022/11/29 00:06:18;;;;;;;14.63;9.40;;;9.70;99.90;;;;;;5035706;28;20297;-61
2022/11/29 00:08:45;;;;;;;12.13;8.97;;;9.80;99.90;;;;;;5035995;28;20651;-58
2022/11/29 00:12:10;;;;;;;12.43;9.57;;;9.80;99.90;;;;;;5035296;28;20241;-58
2022/11/29 00:14:03;;;;;;;12.13;8.97;;;9.90;99.90;;;;;;5035865;28;20333;-59
2022/11/29 00:16:30;;;;;;;14.83;8.90;;;9.90;99.90;;;;;;5036479;28;20645;-61
2022/11/29 00:18:57;;;;;;;11.33;8.97;;;9.90;99.90;;;;;;5035663;28;20233;-62
2022/11/29 00:21:23;;;;;;;10.27;8.27;;;9.90;99.90;;;;;;5036074;28;20283;-59
2022/11/29 00:23:50;;;;;;;11.10;8.23;;;9.80;99.90;;;;;;5035494;28;20583;-59
2022/11/29 00:26:19;;;;;;;12.33;9.37;;;9.80;99.90;;;;;;5035595;28;20213;-59
2022/11/29 00:28:46;;;;;;;12.47;8.27;;;9.80;99.90;;;;;;5035314;28;20202;-59
2022/11/29 00:31:15;;;;;;;11.70;9.00;;;9.80;99.90;;;;;;5034807;28;20293;-59
2022/11/29 00:33:42;;;;;;;10.57;8.10;;;9.80;99.90;;;;;;5034722;28;20316;-59
2022/11/29 00:36:09;;;;;;;11.10;8.53;;;9.80;99.90;;;;;;5034991;28;20240;-59
2022/11/29 00:38:36;;;;;;;11.73;8.70;;;9.90;99.90;;;;;;5034790;28;20222;-59
2022/11/29 00:41:03;;;;;;;10.43;8.60;;;9.90;99.90;;;;;;5034924;28;20202;-59
2022/11/29 00:43:31;;;;;;;13.27;9.13;;;9.90;99.90;;;;;;5034979;28;20334;-59
2022/11/29 00:45:58;;;;;;;12.50;8.97;;;10.00;99.90;;;;;;5034812;28;20269;-59
2022/11/29 00:48:25;;;;;;;11.50;8.70;;;10.00;99.90;;;;;;5034600;28;20202;-58
2022/11/29 00:50:52;;;;;;;13.00;8.60;;;10.00;99.90;;;;;;5034564;28;20206;-59
2022/11/29 00:53:19;;;;;;;11.17;8.47;;;10.00;99.90;;;;;;5034571;28;20227;-59
2022/11/29 00:55:48;;;;;;;9.40;7.93;;;10.00;99.90;;;;;;5035099;28;20206;-59
2022/11/29 00:58:15;;;;;;;11.13;8.50;;;10.00;99.90;;;;;;5035296;28;20230;-59
2022/11/29 01:00:43;;;;;;;11.07;8.40;;;10.00;99.90;;;;;;5034668;28;20788;-59
2022/11/29 01:03:10;;;;;;;11.70;8.13;;;10.10;99.90;;;;;;5034866;28;20316;-59
2022/11/29 01:05:37;;;;;;;10.87;8.80;;;10.10;99.90;;;;;;5034907;28;20213;-59
2022/11/29 01:08:04;;;;;;;11.20;8.30;;;10.10;99.90;;;;;;5035182;28;20205;-59
2022/11/29 01:10:31;;;;;;;12.43;8.97;;;10.10;99.90;;;;;;5034336;28;20260;-59
2022/11/29 01:12:58;;;;;;;10.23;7.67;;;10.10;99.90;;;;;;5035186;28;20229;-59
2022/11/29 01:15:25;;;;;;;10.83;8.20;;;10.10;99.90;;;;;;5034589;28;20700;-59
2022/11/29 01:17:53;;;;;;;9.10;7.67;;;10.10;99.90;;;;;;5034684;28;20268;-60
2022/11/29 01:20:21;;;;;;;9.33;7.70;;;10.20;99.90;;;;;;5034325;28;20203;-59
2022/11/29 01:22:47;;;;;;;12.47;8.43;;;10.10;99.90;;;;;;5067496;22;20306;-67
2022/11/29 01:25:15;;;;;;;10.93;8.23;;;10.00;99.90;;;;;;5065156;28;20197;-68
2022/11/29 01:27:41;;;;;;;10.60;8.20;;;10.00;99.90;;;;;;5073527;28;20200;-68
2022/11/29 01:30:10;;;;;;;14.03;8.37;;;10.00;99.90;;;;;;5072888;28;20205;-66
2022/11/29 01:32:37;;;;;;;12.10;8.80;;;10.00;99.90;;;;;;5073056;28;20235;-68
2022/11/29 01:35:06;;;;;;;10.70;8.50;;;10.00;99.90;;;;;;5073083;28;20204;-68
2022/11/29 01:37:33;;;;;;;10.47;8.40;;;10.00;99.90;;;;;;5073066;28;20620;-65
2022/11/29 01:40:00;;;;;;;10.60;8.40;;;10.10;99.90;;;;;;5072574;28;20556;-65
2022/11/29 01:42:27;;;;;;;9.60;8.30;;;10.10;99.90;;;;;;5073141;28;20204;-67
2022/11/29 01:45:07;;;;;;;10.80;8.77;;;10.10;99.90;;;;;;5072988;28;20208;-68
2022/11/29 01:47:38;;;;;;;11.00;8.27;;;10.20;99.90;;;;;;5072887;28;20205;-67
2022/11/29 01:50:08;;;;;;;11.80;8.07;;;10.20;99.90;;;;;;5072668;28;20201;-67
2022/11/29 01:52:35;;;;;;;13.33;8.67;;;10.20;99.90;;;;;;5072870;28;20229;-66
2022/11/29 01:55:05;;;;;;;13.10;9.13;;;10.20;99.90;;;;;;5072833;28;20401;-67
2022/11/29 01:57:35;;;;;;;10.50;8.20;;;10.10;99.90;;;;;;5072552;28;20205;-68
2022/11/29 02:00:07;;;;;;;12.57;8.90;;;10.10;99.90;;;;;;5072150;28;20215;-67
2022/11/29 02:02:38;;;;;;;9.90;8.40;;;10.00;99.90;;;;;;5072380;28;20228;-67
2022/11/29 02:05:07;;;;;;;9.83;8.20;;;10.00;99.90;;;;;;5072910;28;20213;-68
2022/11/29 02:07:35;;;;;;;13.23;9.27;;;9.90;99.90;;;;;;5072596;28;20200;-67
2022/11/29 02:10:02;;;;;;;12.63;9.30;;;10.00;99.90;;;;;;5072044;28;20208;-66
2022/11/29 02:12:38;;;;;;;9.47;8.47;;;9.90;99.90;;;;;;5072520;28;20201;-67
2022/11/29 02:15:16;;;;;;;11.07;8.97;;;9.90;99.90;;;;;;5072885;28;20209;-68
2022/11/29 02:17:58;;;;;;;11.60;8.60;;;9.80;99.90;;;;;;5072644;28;20204;-67
2022/11/29 02:21:04;;;;;;;10.97;8.37;;;9.70;99.90;;;;;;5071950;28;20208;-68
2022/11/29 02:23:58;;;;;;;11.57;8.80;;;9.80;99.90;;;;;;5072233;28;20258;-68
2022/11/29 02:26:51;;;;;;;11.67;8.40;;;9.90;99.90;;;;;;5072808;28;20295;-68
2022/11/29 02:29:44;;;;;;;11.03;8.10;;;10.10;99.90;;;;;;5072738;28;20205;-65
2022/11/29 02:32:47;;;;;;;11.90;8.47;;;10.20;99.90;;;;;;5069245;28;20583;-66
2022/11/29 02:35:24;;;;;;;11.50;8.57;;;10.20;99.90;;;;;;5069412;28;20211;-66
2022/11/29 02:38:19;;;;;;;11.60;7.87;;;10.30;99.90;;;;;;5072391;28;20231;-66
2022/11/29 02:41:11;;;;;;;10.10;8.73;;;10.40;99.90;;;;;;5071904;28;20213;-67
2022/11/29 02:44:06;;;;;;;9.47;8.00;;;10.30;99.90;;;;;;5072164;28;20228;-67
2022/11/29 02:46:51;;;;;;;9.17;7.40;;;10.30;99.90;;;;;;5072501;28;20295;-67
2022/11/29 02:49:31;;;;;;;10.10;7.63;;;10.30;99.90;;;;;;5072343;28;20212;-67
2022/11/29 02:52:01;;;;;;;8.63;7.23;;;10.30;99.90;;;;;;5071346;28;20208;-66
2022/11/29 02:54:42;;;;;;;9.80;7.90;;;10.30;99.90;;;;;;5072244;28;20224;-67
2022/11/29 02:57:19;;;;;;;11.33;8.07;;;10.30;99.90;;;;;;5071939;28;20644;-67
2022/11/29 02:59:52;;;;;;;9.63;7.30;;;10.40;99.90;;;;;;5071892;28;20239;-66
2022/11/29 03:02:26;;;;;;;8.30;6.87;;;10.40;99.90;;;;;;5071588;28;20212;-67
2022/11/29 03:05:01;;;;;;;8.27;7.23;;;10.40;99.90;;;;;;5072009;28;20224;-67
2022/11/29 03:07:37;;;;;;;8.87;6.77;;;10.20;99.90;;;;;;5071948;28;20231;-66
2022/11/29 03:10:13;;;;;;;9.07;6.87;;;10.20;99.90;;;;;;5070885;28;20201;-66
2022/11/29 03:12:43;;;;;;;8.23;7.43;;;10.40;99.90;;;;;;5071571;28;20235;-65
2022/11/29 03:15:24;;;;;;;7.57;6.70;;;10.50;99.90;;;;;;5075080;28;20216;-65
2022/11/29 03:18:02;;;;;;;7.67;6.63;;;10.60;99.90;;;;;;5075790;28;20231;-65
2022/11/29 03:20:38;;;;;;;8.60;6.40;;;10.60;99.90;;;;;;5075227;28;20234;-65
2022/11/29 03:23:14;;;;;;;7.00;6.30;;;10.70;99.90;;;;;;5075519;28;20240;-65
2022/11/29 03:25:45;;;;;;;9.57;6.20;;;10.60;99.90;;;;;;5075832;28;20227;-65
2022/11/29 03:28:17;;;;;;;7.70;5.90;;;10.50;99.90;;;;;;5075809;28;20209;-65
2022/11/29 03:30:50;;;;;;;7.40;6.60;;;10.50;99.90;;;;;;5075048;28;20503;-65
2022/11/29 03:33:23;;;;;;;11.40;8.00;;;10.70;99.90;;;;;;5075589;28;20231;-66
2022/11/29 03:35:59;;;;;;;8.40;6.97;;;10.70;99.90;;;;;;5075263;28;20201;-66
2022/11/29 03:38:30;;;;;;;9.00;7.40;;;10.90;99.90;;;;;;5075166;28;20227;-66
2022/11/29 03:41:05;;;;;;;10.63;6.33;;;10.90;99.90;;;;;;5074876;28;20204;-66
2022/11/29 03:43:40;;;;;;;17.57;12.73;;;10.90;99.90;;;;;;5075263;28;20243;-66
2022/11/29 03:46:12;;;;;;;9.93;7.50;;;10.90;99.90;;;;;;5075072;28;20672;-66
2022/11/29 03:48:44;;;;;;;9.37;6.60;;;10.90;99.90;;;;;;5075366;28;20211;-66
2022/11/29 03:51:16;;;;;;;8.93;6.77;;;11.00;99.90;;;;;;5074535;28;20212;-66
2022/11/29 03:53:50;;;;;;;9.87;7.70;;;11.00;99.90;;;;;;5075197;28;20292;-66
2022/11/29 03:56:29;;;;;;;10.13;7.40;;;11.00;99.90;;;;;;5075715;28;20208;-65
2022/11/29 03:59:10;;;;;;;8.17;6.27;;;11.10;99.90;;;;;;5075261;28;20708;-65
2022/11/29 04:02:04;;;;;;;8.37;7.23;;;11.10;99.90;;;;;;5075597;28;20307;-65
2022/11/29 04:05:07;;;;;;;8.97;6.73;;;11.10;99.90;;;;;;5075112;28;20229;-65
2022/11/29 04:07:46;;;;;;;8.07;6.13;;;11.20;99.90;;;;;;5075034;28;20224;-66
2022/11/29 04:10:25;;;;;;;7.13;6.10;;;11.20;99.90;;;;;;5074713;28;20223;-65
2022/11/29 04:13:16;;;;;;;16.37;14.07;;;11.20;99.90;;;;;;5075537;28;20312;-65
2022/11/29 04:16:12;;;;;;;26.27;19.70;;;11.20;99.90;;;;;;5075480;28;20201;-65
2022/11/29 04:19:19;;;;;;;9.63;7.40;;;11.20;99.90;;;;;;5063345;28;20236;-66
2022/11/29 04:22:11;;;;;;;11.63;7.60;;;11.20;99.90;;;;;;5073831;28;20208;-66
2022/11/29 04:25:10;;;;;;;8.50;6.40;;;11.20;99.90;;;;;;5074235;28;20212;-66
2022/11/29 04:27:47;;;;;;;6.33;5.60;;;11.30;99.90;;;;;;5074547;28;20205;-66
2022/11/29 04:30:18;;;;;;;10.40;8.30;;;11.30;99.90;;;;;;5074061;28;20212;-66
2022/11/29 04:33:18;;;;;;;11.33;8.57;;;11.20;99.90;;;;;;5074461;28;20232;-65
2022/11/29 04:36:16;;;;;;;9.40;6.37;;;11.30;99.90;;;;;;5074865;28;20209;-66
2022/11/29 04:39:07;;;;;;;12.20;8.30;;;11.20;99.90;;;;;;5061302;28;20229;-66
2022/11/29 04:41:46;;;;;;;8.27;7.10;;;11.20;99.90;;;;;;5073522;28;20691;-65
2022/11/29 04:44:28;;;;;;;14.60;10.47;;;11.20;99.90;;;;;;5074184;28;20228;-66
2022/11/29 04:47:04;;;;;;;13.97;10.67;;;11.20;99.90;;;;;;5074064;28;20216;-66
2022/11/29 04:49:53;;;;;;;8.43;7.43;;;11.20;99.90;;;;;;5074047;28;20201;-66
2022/11/29 04:52:37;;;;;;;9.60;7.03;;;11.20;99.90;;;;;;5073317;28;20699;-67
2022/11/29 04:55:14;;;;;;;7.00;6.30;;;11.20;99.90;;;;;;5074131;28;20204;-66
2022/11/29 04:57:47;;;;;;;11.63;8.17;;;11.20;99.90;;;;;;5074078;28;20212;-66
2022/11/29 05:00:18;;;;;;;16.23;10.10;;;11.10;99.90;;;;;;5073265;28;20428;-66
2022/11/29 05:02:54;;;;;;;8.30;6.47;;;11.10;99.90;;;;;;5073696;28;20225;-66
2022/11/29 05:05:29;;;;;;;8.73;6.57;;;11.10;99.90;;;;;;5073694;28;20685;-66
2022/11/29 05:08:11;;;;;;;9.53;7.17;;;11.20;99.90;;;;;;5073837;28;20617;-66
2022/11/29 05:10:48;;;;;;;9.73;6.83;;;11.10;99.90;;;;;;5073323;28;20209;-67
2022/11/29 05:13:28;;;;;;;10.43;8.43;;;11.20;99.90;;;;;;5073606;28;20236;-66
2022/11/29 05:16:11;;;;;;;6.67;5.97;;;11.20;99.90;;;;;;5073411;28;20672;-66
2022/11/29 05:19:05;;;;;;;6.63;5.80;;;11.20;99.90;;;;;;5073461;28;20298;-66
2022/11/29 05:21:43;;;;;;;8.33;6.40;;;11.20;99.90;;;;;;5070133;28;20204;-66
2022/11/29 05:24:24;;;;;;;9.20;6.83;;;11.10;99.90;;;;;;5073093;28;20724;-66
2022/11/29 05:26:59;;;;;;;9.27;7.47;;;11.00;99.90;;;;;;5073456;28;20209;-66
2022/11/29 05:29:33;;;;;;;10.83;8.80;;;10.90;99.90;;;;;;5073330;28;20212;-66
2022/11/29 05:32:15;;;;;;;12.40;9.17;;;10.80;99.90;;;;;;5072609;28;20211;-66
2022/11/29 05:34:58;;;;;;;8.20;7.00;;;10.90;99.90;;;;;;5072935;28;20591;-66
2022/11/29 05:37:37;;;;;;;10.80;7.60;;;11.00;99.90;;;;;;5072456;28;20205;-66
2022/11/29 05:40:22;;;;;;;9.80;7.80;;;11.10;99.90;;;;;;5072820;28;20224;-66
2022/11/29 05:43:09;;;;;;;9.17;6.93;;;11.10;99.90;;;;;;5072864;28;20225;-65
2022/11/29 05:45:46;;;;;;;7.93;6.87;;;11.10;99.90;;;;;;5072944;28;20216;-66
2022/11/29 05:48:19;;;;;;;7.07;6.20;;;11.10;99.90;;;;;;5072941;28;20382;-65
2022/11/29 05:50:51;;;;;;;15.27;10.67;;;11.00;99.90;;;;;;5072254;28;20207;-65
2022/11/29 05:53:24;;;;;;;10.10;6.77;;;11.00;99.90;;;;;;5072579;28;20228;-66
2022/11/29 05:56:02;;;;;;;9.27;6.57;;;11.00;99.90;;;;;;5072630;28;20677;-65
2022/11/29 05:58:38;;;;;;;7.10;6.10;;;11.10;99.90;;;;;;5072835;28;20208;-65
2022/11/29 06:01:18;;;;;;;9.03;6.83;;;11.10;99.90;;;;;;5072045;28;20209;-65
2022/11/29 06:03:54;;;;;;;11.13;7.87;;;11.10;99.90;;;;;;5072329;28;20228;-65
2022/11/29 06:06:30;;;;;;;9.63;7.47;;;11.00;99.90;;;;;;5073004;28;20212;-65
2022/11/29 06:09:05;;;;;;;9.13;7.60;;;11.10;99.90;;;;;;5072516;28;20215;-65
2022/11/29 06:11:38;;;;;;;10.20;7.83;;;11.10;99.90;;;;;;5071637;28;20656;-65
2022/11/29 06:14:13;;;;;;;9.83;7.60;;;11.20;99.90;;;;;;5072170;28;20239;-65
2022/11/29 06:16:55;;;;;;;12.60;8.87;;;11.20;99.90;;;;;;5072300;28;20582;-65
2022/11/29 06:19:51;;;;;;;12.20;8.73;;;11.20;99.90;;;;;;5072430;28;20225;-66
2022/11/29 06:22:39;;;;;;;14.87;8.53;;;11.20;99.90;;;;;;5071348;28;20211;-65
2022/11/29 06:25:21;;;;;;;14.13;9.33;;;11.10;99.90;;;;;;5072213;28;20286;-65
2022/11/29 06:28:03;;;;;;;12.97;9.07;;;11.10;99.90;;;;;;5072242;28;20236;-65
2022/11/29 06:30:48;;;;;;;14.93;9.27;;;11.10;99.90;;;;;;5071417;28;20262;-64
2022/11/29 06:33:22;;;;;;;15.27;10.03;;;11.00;99.90;;;;;;5071721;28;20217;-65
2022/11/29 06:35:54;;;;;;;20.20;9.33;;;11.00;99.90;;;;;;5072144;28;20665;-65
2022/11/29 06:38:23;;;;;;;22.47;9.20;;;11.00;99.90;;;;;;5072038;28;20825;-64
2022/11/29 06:40:50;;;;;;;18.83;9.47;;;10.90;99.90;;;;;;5071353;28;20227;-67
2022/11/29 06:43:18;;;;;;;15.03;8.43;;;10.60;99.90;;;;;;5071746;28;20225;-65
2022/11/29 06:45:50;;;;;;;18.80;9.10;;;10.30;99.90;;;;;;5071980;28;20208;-65
2022/11/29 06:48:22;;;;;;;16.13;9.17;;;10.10;99.90;;;;;;5071781;28;20675;-64
2022/11/29 06:50:56;;;;;;;21.10;9.40;;;9.80;99.90;;;;;;5071436;28;20204;-65
2022/11/29 06:53:33;;;;;;;21.57;9.03;;;9.70;99.90;;;;;;5071779;28;20716;-65
2022/11/29 06:56:10;;;;;;;24.43;9.33;;;9.70;99.90;;;;;;5071951;28;20212;-65
2022/11/29 06:58:45;;;;;;;20.33;8.03;;;9.70;99.90;;;;;;5071909;28;20220;-65
2022/11/29 07:01:23;;;;;;;19.80;9.63;;;9.60;99.90;;;;;;5070947;28;20584;-65
2022/11/29 07:04:02;;;;;;;19.43;9.20;;;9.70;99.90;;;;;;5071491;28;20323;-66
2022/11/29 07:06:31;;;;;;;21.70;8.70;;;9.80;99.90;;;;;;5071792;28;20205;-66
2022/11/29 07:09:01;;;;;;;25.30;8.63;;;9.70;99.90;;;;;;5071787;28;20204;-64
2022/11/29 07:11:28;;;;;;;19.57;9.00;;;9.70;99.90;;;;;;5071347;28;20216;-64
2022/11/29 07:13:55;;;;;;;21.60;7.90;;;9.70;99.90;;;;;;5071661;28;20228;-65
2022/11/29 07:16:28;;;;;;;14.20;8.93;;;9.60;99.90;;;;;;5071507;28;20208;-65
2022/11/29 07:19:09;;;;;;;30.63;9.40;;;9.50;99.90;;;;;;5071684;28;20573;-65
2022/11/29 07:21:48;;;;;;;26.47;8.53;;;9.60;99.90;;;;;;5071129;28;20215;-64
2022/11/29 07:24:34;;;;;;;29.73;10.07;;;9.70;99.90;;;;;;5096268;22;20596;-59
2022/11/29 07:27:08;;;;;;;22.27;9.07;;;9.70;99.90;;;;;;5066360;28;20228;-58
2022/11/29 07:29:42;;;;;;;24.70;9.27;;;9.90;99.90;;;;;;5073292;28;20205;-59
2022/11/29 07:32:16;;;;;;;23.83;9.83;;;9.90;99.90;;;;;;5072468;28;20239;-59
2022/11/29 07:34:56;;;;;;;29.53;9.03;;;9.90;99.90;;;;;;5073065;28;20666;-59
2022/11/29 07:37:34;;;;;;;17.00;8.70;;;9.90;99.90;;;;;;5073009;28;20291;-59
2022/11/29 07:40:06;;;;;;;28.57;8.67;;;9.80;99.90;;;;;;5072760;28;20260;-59
2022/11/29 07:42:43;;;;;;;21.10;9.37;;;9.80;99.90;;;;;;5072436;28;20243;-59
2022/11/29 07:45:20;;;;;;;29.00;9.50;;;9.90;99.90;;;;;;5072996;28;20212;-59
2022/11/29 07:47:48;;;;;;;22.83;8.97;;;10.10;99.90;;;;;;5072677;28;20209;-59
2022/11/29 07:50:17;;;;;;;22.27;9.47;;;10.20;99.90;;;;;;5072208;28;20240;-59
2022/11/29 07:52:44;;;;;;;18.87;9.53;;;10.30;99.90;;;;;;5072309;28;20292;-59
2022/11/29 07:55:13;;;;;;;23.40;9.60;;;10.50;99.90;;;;;;5073051;28;20204;-59
2022/11/29 07:57:40;;;;;;;19.50;9.20;;;10.60;99.90;;;;;;5073205;28;20215;-59
2022/11/29 08:00:08;;;;;;;16.80;8.63;;;10.50;99.90;;;;;;5074204;28;20225;-59
2022/11/29 08:02:35;;;;;;;15.83;8.67;;;10.30;99.90;;;;;;5067099;28;20320;-60
2022/11/29 08:05:02;;;;;;;15.03;9.00;;;10.10;99.90;;;;;;5058802;28;20764;-64
2022/11/29 08:07:33;;;;;;;13.00;8.87;;;9.90;99.90;;;;;;5077548;28;20653;-61
2022/11/29 08:10:00;;;;;;;14.87;9.90;;;10.00;99.90;;;;;;5076022;28;20239;-60
2022/11/29 08:12:27;;;;;;;14.60;9.10;;;10.00;99.90;;;;;;5075481;28;20200;-59
2022/11/29 08:14:53;;;;;;;13.20;8.60;;;10.10;99.90;;;;;;5076324;28;20235;-60
2022/11/29 08:17:21;;;;;;;13.70;8.13;;;10.20;99.90;;;;;;5076434;28;20630;-60
2022/11/29 08:19:48;;;;;;;14.90;9.17;;;10.20;99.90;;;;;;5075219;28;20224;-60
2022/11/29 08:22:15;;;;;;;15.00;8.73;;;10.40;99.90;;;;;;5074305;28;20314;-60
2022/11/29 08:24:43;;;;;;;12.97;8.07;;;10.60;99.90;;;;;;5074070;28;20327;-60
2022/11/29 08:27:10;;;;;;;13.83;8.90;;;10.70;99.90;;;;;;5074449;28;20617;-60
2022/11/29 08:29:37;;;;;;;13.87;8.80;;;10.70;99.90;;;;;;5074182;28;20219;-60
2022/11/29 08:32:04;;;;;;;16.67;8.40;;;10.70;99.90;;;;;;5074098;28;20240;-61
2022/11/29 08:34:31;;;;;;;12.70;8.47;;;10.60;99.90;;;;;;5074216;28;20278;-61
2022/11/29 08:36:58;;;;;;;14.23;8.53;;;10.60;99.90;;;;;;5074457;28;20205;-60
2022/11/29 08:39:25;;;;;;;11.80;7.90;;;10.50;99.90;;;;;;5074312;28;20225;-60
2022/11/29 08:41:53;;;;;;;12.37;7.70;;;10.60;99.90;;;;;;5074080;28;20211;-60
2022/11/29 08:44:20;;;;;;;10.33;7.50;;;10.50;99.90;;;;;;5073922;28;20229;-61
2022/11/29 08:49:31;;;;;;;10.23;7.03;;;10.50;99.90;;;;;;5074527;28;20219;-62
2022/11/29 08:54:38;;;;;;;8.63;7.13;;;10.90;99.90;;;;;;5072716;28;20600;-60
2022/11/29 08:57:06;;;;;;;8.53;6.60;;;11.20;99.90;;;;;;5074620;28;20213;-61
2022/11/29 08:59:33;;;;;;;7.77;6.27;;;11.30;99.90;;;;;;5074876;28;20200;-61
2022/11/29 09:02:00;;;;;;;7.20;5.60;;;11.20;99.90;;;;;;5073850;28;20213;-60
2022/11/29 09:04:27;;;;;;;7.03;6.00;;;11.00;99.90;;;;;;5074523;28;20235;-60
2022/11/29 09:06:54;;;;;;;7.33;5.97;;;11.00;99.90;;;;;;5074848;28;20292;-62
2022/11/29 09:09:20;;;;;;;7.33;5.77;;;11.10;99.90;;;;;;5075486;28;20209;-63
2022/11/29 09:11:47;;;;;;;6.63;5.90;;;11.00;99.90;;;;;;5074087;28;20205;-61
2022/11/29 09:14:18;;;;;;;6.60;5.83;;;10.90;99.90;;;;;;5074505;28;20312;-61
2022/11/29 09:16:44;;;;;;;7.53;6.13;;;10.80;99.90;;;;;;5074791;28;20224;-61
2022/11/29 09:19:14;;;;;;;6.03;5.10;;;10.90;99.90;;;;;;5074800;28;20672;-60
2022/11/29 09:21:41;;;;;;;6.67;4.97;;;11.00;99.90;;;;;;5074391;28;20224;-61
2022/11/29 09:24:09;;;;;;;7.70;6.10;;;11.00;99.90;;;;;;5074846;28;20236;-61
2022/11/29 09:26:39;;;;;;;6.40;5.40;;;10.90;99.90;;;;;;5074502;28;20616;-61
2022/11/29 09:29:06;;;;;;;6.83;5.37;;;11.10;99.90;;;;;;5074634;28;20668;-61
2022/11/29 09:31:35;;;;;;;6.47;5.60;;;11.10;99.90;;;;;;5074149;28;20201;-61
2022/11/29 09:34:02;;;;;;;7.00;5.63;;;11.20;99.90;;;;;;5074438;28;20225;-61
2022/11/29 09:36:30;;;;;;;5.83;4.80;;;11.20;99.90;;;;;;5074757;28;20623;-61
2022/11/29 09:38:57;;;;;;;6.27;5.10;;;11.20;99.90;;;;;;5074238;28;20220;-61
2022/11/29 09:41:46;;;;;;;6.10;5.50;;;11.40;99.90;;;;;;5073990;28;20312;-61
2022/11/29 09:44:20;;;;;;;7.93;5.70;;;11.40;99.90;;;;;;5074174;28;20311;-61
2022/11/29 09:46:57;;;;;;;5.50;4.97;;;11.40;99.90;;;;;;5073663;28;20262;-61
2022/11/29 09:49:50;;;;;;;6.17;5.23;;;11.50;99.90;;;;;;5074747;28;20212;-61
2022/11/29 09:52:26;;;;;;;6.40;5.60;;;11.60;99.90;;;;;;5073924;28;20643;-61
2022/11/29 09:54:58;;;;;;;5.67;5.07;;;11.70;99.90;;;;;;5074320;28;20224;-61
2022/11/29 09:57:27;;;;;;;8.43;5.00;;;11.60;99.90;;;;;;5074148;28;20205;-61
2022/11/29 09:59:58;;;;;;;8.67;6.63;;;11.70;99.90;;;;;;5073591;28;20239;-61
2022/11/29 10:02:35;;;;;;;6.43;5.10;;;11.80;99.90;;;;;;5073607;28;20752;-61
2022/11/29 10:05:08;;;;;;;5.13;4.63;;;11.70;99.90;;;;;;5074028;28;20295;-61
2022/11/29 10:07:39;;;;;;;6.17;5.17;;;11.70;99.90;;;;;;5074785;28;20200;-61
2022/11/29 10:10:12;;;;;;;6.77;5.30;;;11.50;99.90;;;;;;5075683;28;20197;-61
2022/11/29 10:12:43;;;;;;;5.93;5.30;;;11.40;99.90;;;;;;5075185;28;20208;-61
2022/11/29 10:15:15;;;;;;;6.47;5.73;;;11.30;99.90;;;;;;5075044;28;20205;-61
2022/11/29 10:17:50;;;;;;;5.90;5.30;;;11.20;99.90;;;;;;5073553;28;20291;-60
2022/11/29 10:20:20;;;;;;;6.03;5.43;;;11.20;99.90;;;;;;5073783;28;20373;-61
2022/11/29 10:22:52;;;;;;;6.10;5.20;;;11.10;99.90;;;;;;5072584;28;20264;-60
2022/11/29 10:25:24;;;;;;;6.40;4.50;;;11.10;99.90;;;;;;5074184;28;20213;-61
2022/11/29 10:27:51;;;;;;;5.27;4.60;;;11.10;99.90;;;;;;5074576;28;20220;-61
2022/11/29 10:30:18;;;;;;;5.63;4.97;;;11.20;99.90;;;;;;5073358;28;20859;-62
2022/11/29 10:32:51;;;;;;;7.47;6.67;;;11.30;99.90;;;;;;5073282;28;20291;-61
2022/11/29 10:35:20;;;;;;;6.40;5.30;;;11.60;99.90;;;;;;5073465;28;20215;-61
2022/11/29 10:37:48;;;;;;;7.97;5.47;;;11.80;99.90;;;;;;5073698;28;20266;-62
2022/11/29 10:40:18;;;;;;;5.60;5.07;;;12.10;99.90;;;;;;5073329;28;20225;-62
2022/11/29 10:42:49;;;;;;;6.20;5.27;;;12.40;99.90;;;;;;5072550;28;20583;-61
2022/11/29 10:45:23;;;;;;;5.83;5.23;;;12.50;99.90;;;;;;5070699;28;20212;-58
2022/11/29 10:47:53;;;;;;;5.90;5.30;;;12.70;99.90;;;;;;5051311;28;20217;-61
2022/11/29 10:50:23;;;;;;;6.23;5.50;;;12.80;99.90;;;;;;5071210;28;20211;-62
2022/11/29 10:52:50;;;;;;;7.87;5.90;;;12.80;99.90;;;;;;5072056;28;20710;-61
2022/11/29 10:55:18;;;;;;;6.40;5.80;;;12.50;99.90;;;;;;5071421;28;20231;-63
2022/11/29 10:58:14;;;;;;;6.20;5.60;;;12.30;99.90;;;;;;5072470;28;20205;-60
2022/11/29 11:00:54;;;;;;;6.13;5.53;;;12.20;99.90;;;;;;5072328;28;20228;-59
2022/11/29 11:03:36;;;;;;;7.33;6.43;;;12.30;99.90;;;;;;5073956;28;20228;-60
2022/11/29 11:06:07;;;;;;;7.33;6.13;;;12.40;99.90;;;;;;5073492;28;20295;-61
2022/11/29 11:08:37;;;;;;;7.40;5.70;;;12.50;99.90;;;;;;5076734;28;20208;-61
2022/11/29 11:11:06;;;;;;;6.67;5.77;;;12.60;99.90;;;;;;5075270;28;20291;-61
2022/11/29 11:13:33;;;;;;;6.47;5.80;;;12.60;99.90;;;;;;5075385;28;20228;-62
2022/11/29 11:16:09;;;;;;;9.73;6.37;;;12.50;99.90;;;;;;5074758;28;20247;-62
2022/11/29 11:18:37;;;;;;;7.23;6.40;;;12.30;99.90;;;;;;5064333;28;20209;-61
2022/11/29 11:21:09;;;;;;;6.87;6.00;;;11.90;99.90;;;;;;5072271;28;20224;-62
2022/11/29 11:23:42;;;;;;;6.23;5.63;;;11.50;99.90;;;;;;5073123;28;20236;-61
2022/11/29 11:26:12;;;;;;;6.00;5.20;;;11.30;99.90;;;;;;5072784;28;20736;-61
2022/11/29 11:28:44;;;;;;;6.57;5.10;;;11.10;99.90;;;;;;5073679;28;20299;-61
2022/11/29 11:31:12;;;;;;;7.20;5.57;;;11.00;99.90;;;;;;5073437;28;20205;-63
2022/11/29 11:33:41;;;;;;;6.40;5.57;;;10.90;99.90;;;;;;5072625;28;20229;-61
2022/11/29 11:36:13;;;;;;;7.20;5.63;;;10.90;99.90;;;;;;5074243;28;20213;-61
2022/11/29 11:38:48;;;;;;;6.73;5.70;;;11.00;99.90;;;;;;5075491;28;20692;-61
2022/11/29 11:44:29;;;;;;;6.00;5.10;;;11.50;99.90;;;;;;5072644;28;20220;-60
2022/11/29 11:46:56;;;;;;;5.17;4.67;;;11.70;99.90;;;;;;5075046;28;20291;-59
2022/11/29 11:49:30;;;;;;;5.00;4.50;;;11.50;99.90;;;;;;5074149;28;20642;-61
2022/11/29 11:51:58;;;;;;;5.00;4.50;;;11.40;99.90;;;;;;5075372;28;20653;-62
2022/11/29 11:54:25;;;;;;;5.33;4.50;;;11.30;99.90;;;;;;5075437;28;20231;-60
2022/11/29 11:56:52;;;;;;;5.40;4.33;;;11.50;99.90;;;;;;5075509;28;20334;-61
2022/11/29 11:59:23;;;;;;;4.67;4.17;;;11.40;99.90;;;;;;5075594;28;20676;-61
2022/11/29 12:01:50;;;;;;;5.00;4.33;;;11.50;99.90;;;;;;5075522;28;20807;-60
2022/11/29 12:04:21;;;;;;;4.60;4.10;;;11.50;99.90;;;;;;5075200;28;20249;-60
2022/11/29 12:06:52;;;;;;;5.33;4.40;;;11.60;99.90;;;;;;5075895;28;20203;-61
2022/11/29 12:09:34;;;;;;;4.67;4.17;;;11.70;99.90;;;;;;5075667;28;20239;-64
2022/11/29 12:12:08;;;;;;;4.27;3.60;;;11.60;99.90;;;;;;5076464;28;20201;-63
2022/11/29 12:14:43;;;;;;;4.70;3.90;;;11.40;99.90;;;;;;5077392;28;20229;-63
2022/11/29 12:17:18;;;;;;;4.53;3.87;;;11.20;99.90;;;;;;5077180;28;20204;-65
2022/11/29 12:19:55;;;;;;;4.27;3.80;;;11.10;99.90;;;;;;5075928;28;20205;-62
2022/11/29 12:22:28;;;;;;;5.30;4.10;;;11.20;99.90;;;;;;5074556;28;20224;-61
2022/11/29 12:25:00;;;;;;;5.50;4.20;;;11.40;99.90;;;;;;5075434;28;20296;-60
2022/11/29 12:27:27;;;;;;;4.97;3.60;;;11.60;99.90;;;;;;5074941;28;20204;-61
2022/11/29 12:29:53;;;;;;;4.90;3.47;;;11.50;99.90;;;;;;5075331;28;20223;-60
2022/11/29 12:32:41;;;;;;;8.30;7.20;;;11.50;99.90;;;;;;5073391;28;20284;-60
2022/11/29 12:35:33;;;;;;;4.10;3.70;;;11.60;99.90;;;;;;5073413;28;20291;-58
2022/11/29 12:38:12;;;;;;;5.50;3.70;;;11.80;99.90;;;;;;5071964;28;20230;-59
2022/11/29 12:40:50;;;;;;;6.33;3.73;;;11.80;99.90;;;;;;5074107;28;20684;-62
2022/11/29 12:43:30;;;;;;;4.90;3.63;;;11.70;99.90;;;;;;5073117;28;20315;-58
2022/11/29 12:46:03;;;;;;;4.33;3.70;;;11.50;99.90;;;;;;5073743;28;20208;-62
2022/11/29 12:48:40;;;;;;;4.33;3.43;;;11.30;99.90;;;;;;5073574;28;20304;-63
2022/11/29 12:51:14;;;;;;;4.40;3.63;;;11.20;99.90;;;;;;5075245;28;20200;-64
2022/11/29 12:54:04;;;;;;;5.17;3.87;;;11.10;99.90;;;;;;5077180;28;20649;-68
2022/11/29 12:56:37;;;;;;;3.70;3.03;;;10.90;99.90;;;;;;5075528;28;20580;-63
2022/11/29 12:59:14;;;;;;;4.13;3.73;;;10.80;99.90;;;;;;5075725;28;20568;-61
2022/11/29 13:02:03;;;;;;;5.53;3.63;;;10.70;99.90;;;;;;5074887;28;20228;-63
2022/11/29 13:04:42;;;;;;;3.80;3.40;;;10.70;99.90;;;;;;5073826;28;20229;-56
2022/11/29 13:07:21;;;;;;;4.67;3.63;;;10.70;99.90;;;;;;5075286;28;20213;-61
2022/11/29 13:10:03;;;;;;;4.17;3.73;;;10.80;99.90;;;;;;5073672;28;20329;-61
2022/11/29 13:12:35;;;;;;;3.60;3.30;;;10.70;99.90;;;;;;5074247;28;20210;-57
2022/11/29 13:15:06;;;;;;;4.00;3.60;;;10.60;99.90;;;;;;5074765;28;20211;-59
2022/11/29 13:17:39;;;;;;;3.50;3.20;;;10.60;99.90;;;;;;5074268;28;20208;-59
2022/11/29 13:20:21;;;;;;;3.57;3.20;;;10.50;99.90;;;;;;5074315;28;20259;-57
2022/11/29 13:22:52;;;;;;;3.63;3.03;;;10.50;99.90;;;;;;5073561;28;20224;-58
2022/11/29 13:25:25;;;;;;;3.13;2.77;;;10.50;99.90;;;;;;5075271;28;20622;-59
2022/11/29 13:27:57;;;;;;;2.93;2.70;;;10.50;99.90;;;;;;5074786;28;20221;-57